createdAt,value
2023-04-02T00:00:10.203Z,73.19
2023-04-02T00:01:10.190Z,73.30
2023-04-02T00:02:10.232Z,73.40
2023-04-02T00:03:10.303Z,73.30
2023-04-02T00:04:10.257Z,73.30
2023-04-02T00:05:10.168Z,73.30
2023-04-02T00:06:10.256Z,73.30
2023-04-02T00:07:10.237Z,73.40
2023-04-02T00:08:10.146Z,73.30
2023-04-02T00:09:10.124Z,73.30
2023-04-02T00:10:10.106Z,73.40
2023-04-02T00:11:10.086Z,73.40
2023-04-02T00:12:10.079Z,73.40
2023-04-02T00:13:10.122Z,73.50
2023-04-02T00:14:10.050Z,73.40
2023-04-02T00:15:10.034Z,73.30
2023-04-02T00:16:10.122Z,73.40
2023-04-02T00:17:10.023Z,73.61
2023-04-02T00:18:10.060Z,73.50
2023-04-02T00:19:10.009Z,73.50
2023-04-02T00:20:09.989Z,73.40
2023-04-02T00:21:09.973Z,73.40
2023-04-02T00:22:09.958Z,73.40
2023-04-02T00:23:09.956Z,73.50
2023-04-02T00:24:09.952Z,73.40
2023-04-02T00:25:09.939Z,73.40
2023-04-02T00:26:09.922Z,73.40
2023-04-02T00:27:09.912Z,73.30
2023-04-02T00:28:09.888Z,73.40
2023-04-02T00:29:09.909Z,73.50
2023-04-02T00:30:09.875Z,73.50
2023-04-02T00:31:09.867Z,73.61
2023-04-02T00:32:09.900Z,73.61
2023-04-02T00:33:09.915Z,73.54
2023-04-02T00:34:09.835Z,73.64
2023-04-02T00:35:09.823Z,73.54
2023-04-02T00:36:09.855Z,73.54
2023-04-02T00:37:09.815Z,73.64
2023-04-02T00:38:09.779Z,73.64
2023-04-02T00:39:09.787Z,73.74
2023-04-02T00:40:09.774Z,73.74
2023-04-02T00:41:09.761Z,73.74
2023-04-02T00:42:09.761Z,73.74
2023-04-02T00:43:09.742Z,73.85
2023-04-02T00:44:09.732Z,73.74
2023-04-02T00:45:09.724Z,73.85
2023-04-02T00:46:09.745Z,73.85
2023-04-02T00:47:09.692Z,73.95
2023-04-02T00:48:09.710Z,73.95
2023-04-02T00:49:09.679Z,73.95
2023-04-02T00:50:09.651Z,74.05
2023-04-02T00:51:09.644Z,74.05
2023-04-02T00:52:09.626Z,74.15
2023-04-02T00:53:09.614Z,74.29
2023-04-02T00:54:10.190Z,74.15
2023-04-02T00:55:09.594Z,74.15
2023-04-02T00:56:09.636Z,74.29
2023-04-02T00:57:09.630Z,74.19
2023-04-02T00:58:09.579Z,74.15
2023-04-02T00:59:09.591Z,74.29
2023-04-02T01:00:09.545Z,74.15
2023-04-02T01:01:09.567Z,74.15
2023-04-02T01:02:09.545Z,74.15
2023-04-02T01:03:09.636Z,74.05
2023-04-02T01:04:09.506Z,74.19
2023-04-02T01:05:09.519Z,74.19
2023-04-02T01:06:09.488Z,74.08
2023-04-02T01:07:09.587Z,74.08
2023-04-02T01:08:09.464Z,74.05
2023-04-02T01:09:09.439Z,74.08
2023-04-02T01:10:09.480Z,74.19
2023-04-02T01:11:09.427Z,74.19
2023-04-02T01:12:09.429Z,73.98
2023-04-02T01:13:09.397Z,73.98
2023-04-02T01:14:09.383Z,73.95
2023-04-02T01:15:09.418Z,73.95
2023-04-02T01:16:09.415Z,74.05
2023-04-02T01:17:09.358Z,74.05
2023-04-02T01:18:09.334Z,74.05
2023-04-02T01:19:09.339Z,74.05
2023-04-02T01:20:09.334Z,73.95
2023-04-02T01:21:09.330Z,74.05
2023-04-02T01:22:09.296Z,74.05
2023-04-02T01:23:09.293Z,74.05
2023-04-02T01:24:09.267Z,74.05
2023-04-02T01:25:09.273Z,73.95
2023-04-02T01:26:09.254Z,73.95
2023-04-02T01:27:09.235Z,74.15
2023-04-02T01:28:09.232Z,74.05
2023-04-02T01:29:09.222Z,74.05
2023-04-02T01:30:09.232Z,74.15
2023-04-02T01:31:09.239Z,74.05
2023-04-02T01:32:09.211Z,74.05
2023-04-02T01:33:09.233Z,74.05
2023-04-02T01:34:09.175Z,74.15
2023-04-02T01:35:09.177Z,74.05
2023-04-02T01:36:09.190Z,74.05
2023-04-02T01:37:09.125Z,74.15
2023-04-02T01:38:09.154Z,74.15
2023-04-02T01:39:09.120Z,74.15
2023-04-02T01:40:09.103Z,74.26
2023-04-02T01:41:09.170Z,74.26
2023-04-02T01:42:09.142Z,74.26
2023-04-02T01:43:09.090Z,74.26
2023-04-02T01:44:09.043Z,74.15
2023-04-02T01:45:09.057Z,74.15
2023-04-02T01:46:09.041Z,74.15
2023-04-02T01:47:09.041Z,74.15
2023-04-02T01:48:09.078Z,74.05
2023-04-02T01:49:09.007Z,74.15
2023-04-02T01:50:08.997Z,74.15
2023-04-02T01:51:08.966Z,74.26
2023-04-02T01:52:08.959Z,74.26
2023-04-02T01:53:09.027Z,74.36
2023-04-02T01:54:08.953Z,74.26
2023-04-02T01:55:08.973Z,74.26
2023-04-02T01:56:08.926Z,74.26
2023-04-02T01:57:08.950Z,74.26
2023-04-02T01:58:08.920Z,74.26
2023-04-02T01:59:08.944Z,74.26
2023-04-02T02:00:08.867Z,74.15
2023-04-02T02:01:09.430Z,74.26
2023-04-02T02:02:08.848Z,74.26
2023-04-02T02:03:08.893Z,74.26
2023-04-02T02:04:08.822Z,74.36
2023-04-02T02:05:08.809Z,74.26
2023-04-02T02:06:08.827Z,74.26
2023-04-02T02:07:08.825Z,74.26
2023-04-02T02:08:08.885Z,74.26
2023-04-02T02:09:08.840Z,74.36
2023-04-02T02:10:08.826Z,74.36
2023-04-02T02:11:08.842Z,74.26
2023-04-02T02:12:08.790Z,74.26
2023-04-02T02:13:08.794Z,74.26
2023-04-02T02:14:08.783Z,74.36
2023-04-02T02:15:08.769Z,74.36
2023-04-02T02:16:08.811Z,74.36
2023-04-02T02:17:08.752Z,74.36
2023-04-02T02:18:08.672Z,74.36
2023-04-02T02:19:08.690Z,74.46
2023-04-02T02:20:08.647Z,74.46
2023-04-02T02:21:08.703Z,74.36
2023-04-02T02:22:08.626Z,74.36
2023-04-02T02:23:08.657Z,74.46
2023-04-02T02:24:08.606Z,74.46
2023-04-02T02:25:08.612Z,74.46
2023-04-02T02:26:08.587Z,74.57
2023-04-02T02:27:08.570Z,74.57
2023-04-02T02:28:08.600Z,74.57
2023-04-02T02:29:08.553Z,74.57
2023-04-02T02:30:08.561Z,74.57
2023-04-02T02:31:08.549Z,74.67
2023-04-02T02:32:08.551Z,74.57
2023-04-02T02:33:08.506Z,74.60
2023-04-02T02:34:08.529Z,74.70
2023-04-02T02:35:08.495Z,74.70
2023-04-02T02:36:08.532Z,74.57
2023-04-02T02:37:08.470Z,74.67
2023-04-02T02:38:08.475Z,74.70
2023-04-02T02:39:08.448Z,74.70
2023-04-02T02:40:08.422Z,74.60
2023-04-02T02:41:08.472Z,74.60
2023-04-02T02:42:08.405Z,74.70
2023-04-02T02:43:08.449Z,74.80
2023-04-02T02:44:08.390Z,74.70
2023-04-02T02:45:08.385Z,74.70
2023-04-02T02:46:08.432Z,74.70
2023-04-02T02:47:08.354Z,74.80
2023-04-02T02:48:08.333Z,74.80
2023-04-02T02:49:08.346Z,74.60
2023-04-02T02:50:08.320Z,74.70
2023-04-02T02:51:08.316Z,74.70
2023-04-02T02:52:08.300Z,74.70
2023-04-02T02:53:08.284Z,74.60
2023-04-02T02:54:08.293Z,74.70
2023-04-02T02:55:08.283Z,74.70
2023-04-02T02:56:08.249Z,74.80
2023-04-02T02:57:08.301Z,74.70
2023-04-02T02:58:08.238Z,74.60
2023-04-02T02:59:08.290Z,74.60
2023-04-02T03:00:08.216Z,74.60
2023-04-02T03:01:08.267Z,74.80
2023-04-02T03:02:08.218Z,74.70
2023-04-02T03:03:08.254Z,74.80
2023-04-02T03:04:08.237Z,74.70
2023-04-02T03:05:08.149Z,74.70
2023-04-02T03:06:08.148Z,74.60
2023-04-02T03:07:08.125Z,74.80
2023-04-02T03:08:08.130Z,74.80
2023-04-02T03:09:08.106Z,74.70
2023-04-02T03:10:08.103Z,74.60
2023-04-02T03:11:08.097Z,74.70
2023-04-02T03:12:08.146Z,74.70
2023-04-02T03:13:08.068Z,74.70
2023-04-02T03:14:08.041Z,74.70
2023-04-02T03:15:08.079Z,74.70
2023-04-02T03:16:08.079Z,74.70
2023-04-02T03:17:08.023Z,74.50
2023-04-02T03:18:08.122Z,74.50
2023-04-02T03:19:07.989Z,74.50
2023-04-02T03:20:07.986Z,74.60
2023-04-02T03:21:07.986Z,74.60
2023-04-02T03:22:07.984Z,74.70
2023-04-02T03:23:07.959Z,74.80
2023-04-02T03:24:07.934Z,74.70
2023-04-02T03:25:07.974Z,74.50
2023-04-02T03:26:07.937Z,74.29
2023-04-02T03:27:07.932Z,74.40
2023-04-02T03:28:07.966Z,74.50
2023-04-02T03:29:07.885Z,74.50
2023-04-02T03:30:07.896Z,74.50
2023-04-02T03:31:07.895Z,74.60
2023-04-02T03:32:07.868Z,74.60
2023-04-02T03:33:07.877Z,74.50
2023-04-02T03:34:07.831Z,74.50
2023-04-02T03:35:07.823Z,74.70
2023-04-02T03:36:07.868Z,74.70
2023-04-02T03:37:07.807Z,74.80
2023-04-02T03:38:07.781Z,74.70
2023-04-02T03:39:07.784Z,74.70
2023-04-02T03:40:08.494Z,74.70
2023-04-02T03:41:07.775Z,74.80
2023-04-02T03:42:07.748Z,74.70
2023-04-02T03:43:07.726Z,74.70
2023-04-02T03:44:07.788Z,74.80
2023-04-02T03:45:07.725Z,74.80
2023-04-02T03:46:07.741Z,74.91
2023-04-02T03:47:07.817Z,75.01
2023-04-02T03:48:07.681Z,75.01
2023-04-02T03:49:07.664Z,74.95
2023-04-02T03:50:07.675Z,74.95
2023-04-02T03:51:07.649Z,74.95
2023-04-02T03:52:07.660Z,74.95
2023-04-02T03:53:07.634Z,75.05
2023-04-02T03:54:07.622Z,74.95
2023-04-02T03:55:07.601Z,74.95
2023-04-02T03:56:07.601Z,74.95
2023-04-02T03:57:07.601Z,74.84
2023-04-02T03:58:07.578Z,74.95
2023-04-02T03:59:07.547Z,74.95
2023-04-02T04:00:07.540Z,75.05
2023-04-02T04:01:07.527Z,75.05
2023-04-02T04:02:07.577Z,74.95
2023-04-02T04:03:07.556Z,75.05
2023-04-02T04:04:07.591Z,75.05
2023-04-02T04:05:07.569Z,75.05
2023-04-02T04:06:07.558Z,75.15
2023-04-02T04:07:07.497Z,75.05
2023-04-02T04:08:07.449Z,75.05
2023-04-02T04:09:07.521Z,75.05
2023-04-02T04:10:07.444Z,75.15
2023-04-02T04:11:07.516Z,75.15
2023-04-02T04:12:07.437Z,75.15
2023-04-02T04:13:07.398Z,75.05
2023-04-02T04:14:07.431Z,75.25
2023-04-02T04:15:07.388Z,75.15
2023-04-02T04:16:07.412Z,75.15
2023-04-02T04:17:07.376Z,75.05
2023-04-02T04:18:07.410Z,75.15
2023-04-02T04:19:07.320Z,75.15
2023-04-02T04:20:07.327Z,75.15
2023-04-02T04:21:07.326Z,75.15
2023-04-02T04:22:07.310Z,75.15
2023-04-02T04:23:07.298Z,75.05
2023-04-02T04:24:07.312Z,75.05
2023-04-02T04:25:07.265Z,75.05
2023-04-02T04:26:07.253Z,75.05
2023-04-02T04:27:07.237Z,75.15
2023-04-02T04:28:07.243Z,75.25
2023-04-02T04:29:07.249Z,75.25
2023-04-02T04:30:07.211Z,75.25
2023-04-02T04:31:07.193Z,75.15
2023-04-02T04:32:07.288Z,75.25
2023-04-02T04:33:07.197Z,75.25
2023-04-02T04:34:07.171Z,75.15
2023-04-02T04:35:07.160Z,75.25
2023-04-02T04:36:07.227Z,75.35
2023-04-02T04:37:07.128Z,75.35
2023-04-02T04:38:07.141Z,75.46
2023-04-02T04:39:07.141Z,75.46
2023-04-02T04:40:07.101Z,75.35
2023-04-02T04:41:07.102Z,75.35
2023-04-02T04:42:07.085Z,75.35
2023-04-02T04:43:07.091Z,75.35
2023-04-02T04:44:07.119Z,75.46
2023-04-02T04:45:07.047Z,75.35
2023-04-02T04:46:07.065Z,75.35
2023-04-02T04:47:07.084Z,75.56
2023-04-02T04:48:07.079Z,75.46
2023-04-02T04:49:07.040Z,75.46
2023-04-02T04:50:07.009Z,75.70
2023-04-02T04:51:07.050Z,75.70
2023-04-02T04:52:06.967Z,75.70
2023-04-02T04:53:06.967Z,75.70
2023-04-02T04:54:06.954Z,75.70
2023-04-02T04:55:06.929Z,75.70
2023-04-02T04:56:18.685Z,75.70
2023-04-02T04:57:06.933Z,75.70
2023-04-02T04:58:06.924Z,75.70
2023-04-02T04:59:06.889Z,75.70
2023-04-02T05:00:08.679Z,75.70
2023-04-02T05:01:06.924Z,75.81
2023-04-02T05:02:06.859Z,76.01
2023-04-02T05:03:07.539Z,76.01
2023-04-02T05:04:06.837Z,76.01
2023-04-02T05:05:06.842Z,75.90
2023-04-02T05:06:06.890Z,75.81
2023-04-02T05:07:06.836Z,75.90
2023-04-02T05:08:06.786Z,75.90
2023-04-02T05:09:06.930Z,75.90
2023-04-02T05:10:06.778Z,75.90
2023-04-02T05:11:06.755Z,76.01
2023-04-02T05:12:06.745Z,76.01
2023-04-02T05:13:06.742Z,75.90
2023-04-02T05:14:06.753Z,76.01
2023-04-02T05:15:06.743Z,75.90
2023-04-02T05:16:06.727Z,76.01
2023-04-02T05:17:06.708Z,76.01
2023-04-02T05:18:06.756Z,75.90
2023-04-02T05:19:06.706Z,75.90
2023-04-02T05:20:06.668Z,76.01
2023-04-02T05:21:06.653Z,76.01
2023-04-02T05:22:06.633Z,76.01
2023-04-02T05:23:06.621Z,76.11
2023-04-02T05:24:06.628Z,76.11
2023-04-02T05:25:06.600Z,76.01
2023-04-02T05:26:06.587Z,76.01
2023-04-02T05:27:06.602Z,76.01
2023-04-02T05:28:06.565Z,75.90
2023-04-02T05:29:06.581Z,75.90
2023-04-02T05:30:06.607Z,75.90
2023-04-02T05:31:06.587Z,75.90
2023-04-02T05:32:06.613Z,75.90
2023-04-02T05:33:06.552Z,75.90
2023-04-02T05:34:06.516Z,75.90
2023-04-02T05:35:06.494Z,75.81
2023-04-02T05:36:06.566Z,75.90
2023-04-02T05:37:07.202Z,76.01
2023-04-02T05:38:06.471Z,75.90
2023-04-02T05:39:06.471Z,75.81
2023-04-02T05:40:06.433Z,75.90
2023-04-02T05:41:06.431Z,76.01
2023-04-02T05:42:06.429Z,76.01
2023-04-02T05:43:06.411Z,76.01
2023-04-02T05:44:06.428Z,76.11
2023-04-02T05:45:06.393Z,76.01
2023-04-02T05:46:06.459Z,76.01
2023-04-02T05:47:06.357Z,76.01
2023-04-02T05:48:06.396Z,75.90
2023-04-02T05:49:06.345Z,76.01
2023-04-02T05:50:06.362Z,76.01
2023-04-02T05:51:06.312Z,76.11
2023-04-02T05:52:06.329Z,76.11
2023-04-02T05:53:06.349Z,76.01
2023-04-02T05:54:06.296Z,76.01
2023-04-02T05:55:06.270Z,75.90
2023-04-02T05:56:06.270Z,75.90
2023-04-02T05:57:06.320Z,75.90
2023-04-02T05:58:33.752Z,75.90
2023-04-02T05:59:06.252Z,75.81
2023-04-02T06:00:06.222Z,75.81
2023-04-02T06:01:06.199Z,75.81
2023-04-02T06:02:06.308Z,75.90
2023-04-02T06:03:06.305Z,75.90
2023-04-02T06:04:06.206Z,75.90
2023-04-02T06:05:06.197Z,75.90
2023-04-02T06:06:06.208Z,75.81
2023-04-02T06:07:06.154Z,75.81
2023-04-02T06:08:06.126Z,75.70
2023-04-02T06:09:06.134Z,75.81
2023-04-02T06:10:06.175Z,75.81
2023-04-02T06:11:06.093Z,75.81
2023-04-02T06:12:06.141Z,75.81
2023-04-02T06:13:06.085Z,75.81
2023-04-02T06:14:06.069Z,75.81
2023-04-02T06:15:06.132Z,75.81
2023-04-02T06:16:06.048Z,75.77
2023-04-02T06:17:06.033Z,75.67
2023-04-02T06:18:06.099Z,75.67
2023-04-02T06:19:05.998Z,75.67
2023-04-02T06:20:06.053Z,75.67
2023-04-02T06:21:06.497Z,75.56
2023-04-02T06:22:06.054Z,75.56
2023-04-02T06:23:05.976Z,75.46
2023-04-02T06:24:05.965Z,75.35
2023-04-02T06:25:06.599Z,75.46
2023-04-02T06:26:05.965Z,75.46
2023-04-02T06:27:05.940Z,75.46
2023-04-02T06:28:05.935Z,75.56
2023-04-02T06:29:05.923Z,75.56
2023-04-02T06:30:05.944Z,75.56
2023-04-02T06:31:05.958Z,75.67
2023-04-02T06:32:05.867Z,75.56
2023-04-02T06:33:05.885Z,75.56
2023-04-02T06:34:05.852Z,75.56
2023-04-02T06:35:05.838Z,75.35
2023-04-02T06:36:05.871Z,75.35
2023-04-02T06:37:05.816Z,75.35
2023-04-02T06:38:05.856Z,75.35
2023-04-02T06:39:05.796Z,75.35
2023-04-02T06:40:06.126Z,75.35
2023-04-02T06:41:05.840Z,75.25
2023-04-02T06:42:05.754Z,75.15
2023-04-02T06:43:05.816Z,75.15
2023-04-02T06:44:05.750Z,75.15
2023-04-02T06:45:06.114Z,75.25
2023-04-02T06:46:05.764Z,75.22
2023-04-02T06:47:05.697Z,75.01
2023-04-02T06:48:05.762Z,75.01
2023-04-02T06:49:05.680Z,75.01
2023-04-02T06:50:06.668Z,75.12
2023-04-02T06:51:05.665Z,75.01
2023-04-02T06:52:05.663Z,74.91
2023-04-02T06:53:05.664Z,74.80
2023-04-02T06:54:05.623Z,74.80
2023-04-02T06:55:05.667Z,74.80
2023-04-02T06:56:05.669Z,74.70
2023-04-02T06:57:05.622Z,74.70
2023-04-02T06:58:05.575Z,74.70
2023-04-02T06:59:05.568Z,74.60
2023-04-02T07:00:06.504Z,74.60
2023-04-02T07:01:05.622Z,74.60
2023-04-02T07:02:05.554Z,74.46
2023-04-02T07:03:05.563Z,74.36
2023-04-02T07:04:05.510Z,74.57
2023-04-02T07:05:05.919Z,74.57
2023-04-02T07:06:05.489Z,74.46
2023-04-02T07:07:05.510Z,74.36
2023-04-02T07:08:05.470Z,74.36
2023-04-02T07:09:05.460Z,74.26
2023-04-02T07:10:05.998Z,74.26
2023-04-02T07:11:05.456Z,74.26
2023-04-02T07:12:05.491Z,74.36
2023-04-02T07:13:05.405Z,74.46
2023-04-02T07:14:05.402Z,74.46
2023-04-02T07:15:05.394Z,74.36
2023-04-02T07:16:05.481Z,74.15
2023-04-02T07:17:05.358Z,74.12
2023-04-02T07:18:05.389Z,74.22
2023-04-02T07:19:05.384Z,73.81
2023-04-02T07:20:05.354Z,73.81
2023-04-02T07:21:05.343Z,73.81
2023-04-02T07:22:05.353Z,73.71
2023-04-02T07:23:05.326Z,73.78
2023-04-02T07:24:05.279Z,73.36
2023-04-02T07:25:05.289Z,73.16
2023-04-02T07:26:05.280Z,73.16
2023-04-02T07:27:05.262Z,72.82
2023-04-02T07:28:05.236Z,72.92
2023-04-02T07:29:05.261Z,72.61
2023-04-02T07:30:05.217Z,72.61
2023-04-02T07:31:05.264Z,72.41
2023-04-02T07:32:05.280Z,72.41
2023-04-02T07:33:05.192Z,72.10
2023-04-02T07:34:05.190Z,72.31
2023-04-02T07:35:05.183Z,72.51
2023-04-02T07:36:05.197Z,72.51
2023-04-02T07:37:05.175Z,72.61
2023-04-02T07:38:05.128Z,72.48
2023-04-02T07:39:05.117Z,72.20
2023-04-02T07:40:05.103Z,72.31
2023-04-02T07:41:05.113Z,72.27
2023-04-02T07:42:05.094Z,72.06
2023-04-02T07:43:05.075Z,72.17
2023-04-02T07:44:05.072Z,72.17
2023-04-02T07:45:06.139Z,71.97
2023-04-02T07:46:05.063Z,71.97
2023-04-02T07:47:05.048Z,72.06
2023-04-02T07:48:05.088Z,72.06
2023-04-02T07:49:05.041Z,71.97
2023-04-02T07:50:05.023Z,72.03
2023-04-02T07:51:05.007Z,71.93
2023-04-02T07:52:04.976Z,71.72
2023-04-02T07:53:05.019Z,71.62
2023-04-02T07:54:04.946Z,71.42
2023-04-02T07:55:04.937Z,71.42
2023-04-02T07:56:04.949Z,71.31
2023-04-02T07:57:04.951Z,71.52
2023-04-02T07:58:04.956Z,71.62
2023-04-02T07:59:05.016Z,71.52
2023-04-02T08:00:04.888Z,71.42
2023-04-02T08:01:04.886Z,71.42
2023-04-02T08:02:04.918Z,71.31
2023-04-02T08:03:05.006Z,71.21
2023-04-02T08:04:04.957Z,71.21
2023-04-02T08:05:04.895Z,71.28
2023-04-02T08:06:04.827Z,71.08
2023-04-02T08:07:04.812Z,71.08
2023-04-02T08:08:04.853Z,70.87
2023-04-02T08:09:04.808Z,71.08
2023-04-02T08:10:04.773Z,71.18
2023-04-02T08:11:04.783Z,71.18
2023-04-02T08:12:04.767Z,71.18
2023-04-02T08:13:04.741Z,71.18
2023-04-02T08:14:04.755Z,71.28
2023-04-02T08:15:04.737Z,71.39
2023-04-02T08:16:04.700Z,71.48
2023-04-02T08:17:04.771Z,71.59
2023-04-02T08:18:04.756Z,71.59
2023-04-02T08:19:04.678Z,71.39
2023-04-02T08:20:04.658Z,71.48
2023-04-02T08:21:04.662Z,71.28
2023-04-02T08:22:04.739Z,71.28
2023-04-02T08:23:04.641Z,71.08
2023-04-02T08:24:04.634Z,71.04
2023-04-02T08:25:04.701Z,71.04
2023-04-02T08:26:04.612Z,70.64
2023-04-02T08:27:04.606Z,70.77
2023-04-02T08:28:04.621Z,70.87
2023-04-02T08:29:04.580Z,71.08
2023-04-02T08:30:04.552Z,70.97
2023-04-02T08:31:04.836Z,71.04
2023-04-02T08:32:04.558Z,70.84
2023-04-02T08:33:04.600Z,70.84
2023-04-02T08:34:04.505Z,70.64
2023-04-02T08:35:04.513Z,70.67
2023-04-02T08:36:04.571Z,70.87
2023-04-02T08:37:04.495Z,70.87
2023-04-02T08:38:04.489Z,70.97
2023-04-02T08:39:04.465Z,71.18
2023-04-02T08:40:04.463Z,71.04
2023-04-02T08:41:04.473Z,70.73
2023-04-02T08:42:04.499Z,70.53
2023-04-02T08:43:04.438Z,70.43
2023-04-02T08:44:04.397Z,70.12
2023-04-02T08:45:13.727Z,70.12
2023-04-02T08:46:04.405Z,70.29
2023-04-02T08:47:04.409Z,70.19
2023-04-02T08:48:04.388Z,69.98
2023-04-02T08:49:04.349Z,69.78
2023-04-02T08:50:04.332Z,69.78
2023-04-02T08:51:04.334Z,69.68
2023-04-02T08:52:04.342Z,69.78
2023-04-02T08:53:04.318Z,69.78
2023-04-02T08:54:04.296Z,70.09
2023-04-02T08:55:04.280Z,70.12
2023-04-02T08:56:04.275Z,70.12
2023-04-02T08:57:04.281Z,70.22
2023-04-02T08:58:04.244Z,70.43
2023-04-02T08:59:04.467Z,70.22
2023-04-02T09:00:04.251Z,70.32
2023-04-02T09:01:04.221Z,70.53
2023-04-02T09:02:04.279Z,70.64
2023-04-02T09:03:04.234Z,70.43
2023-04-02T09:04:04.225Z,70.53
2023-04-02T09:05:04.311Z,70.29
2023-04-02T09:06:04.166Z,70.09
2023-04-02T09:07:04.170Z,69.98
2023-04-02T09:08:04.137Z,69.98
2023-04-02T09:09:04.200Z,69.89
2023-04-02T09:10:04.145Z,69.89
2023-04-02T09:11:04.094Z,69.98
2023-04-02T09:12:04.288Z,69.89
2023-04-02T09:13:04.099Z,70.19
2023-04-02T09:14:04.094Z,69.89
2023-04-02T09:15:04.055Z,69.68
2023-04-02T09:16:04.137Z,69.34
2023-04-02T09:17:04.056Z,69.13
2023-04-02T09:18:04.089Z,69.13
2023-04-02T09:19:04.012Z,69.13
2023-04-02T09:20:04.000Z,68.73
2023-04-02T09:21:03.993Z,68.32
2023-04-02T09:22:03.992Z,68.52
2023-04-02T09:23:03.978Z,68.73
2023-04-02T09:24:04.733Z,68.28
2023-04-02T09:25:03.961Z,68.28
2023-04-02T09:26:04.891Z,68.08
2023-04-02T09:27:03.940Z,68.28
2023-04-02T09:28:03.915Z,68.49
2023-04-02T09:29:03.929Z,68.52
2023-04-02T09:30:03.947Z,68.69
2023-04-02T09:31:06.249Z,68.38
2023-04-02T09:32:03.908Z,68.28
2023-04-02T09:33:03.885Z,68.25
2023-04-02T09:34:03.839Z,68.05
2023-04-02T09:35:09.601Z,67.54
2023-04-02T09:36:03.892Z,67.64
2023-04-02T09:37:03.824Z,67.54
2023-04-02T09:38:03.800Z,67.64
2023-04-02T09:39:03.802Z,67.64
2023-04-02T09:40:03.796Z,67.60
2023-04-02T09:41:03.805Z,67.40
2023-04-02T09:42:05.825Z,67.19
2023-04-02T09:43:03.789Z,66.89
2023-04-02T09:44:03.740Z,66.78
2023-04-02T09:45:03.728Z,66.25
2023-04-02T09:46:03.725Z,66.25
2023-04-02T09:47:03.907Z,66.25
2023-04-02T09:48:04.259Z,65.87
2023-04-02T09:49:03.821Z,66.38
2023-04-02T09:50:03.752Z,66.48
2023-04-02T09:51:03.734Z,66.78
2023-04-02T09:52:03.648Z,66.89
2023-04-02T09:53:03.654Z,66.89
2023-04-02T09:54:03.648Z,66.89
2023-04-02T09:55:03.630Z,66.99
2023-04-02T09:56:03.623Z,66.89
2023-04-02T09:57:03.646Z,67.10
2023-04-02T09:58:03.673Z,67.30
2023-04-02T09:59:03.626Z,67.30
2023-04-02T10:00:03.590Z,67.50
2023-04-02T10:01:03.606Z,67.50
2023-04-02T10:02:03.560Z,67.60
2023-04-02T10:03:03.636Z,67.30
2023-04-02T10:04:03.629Z,67.50
2023-04-02T10:05:03.545Z,67.40
2023-04-02T10:06:03.489Z,67.60
2023-04-02T10:07:03.488Z,67.40
2023-04-02T10:08:03.759Z,67.40
2023-04-02T10:09:03.495Z,67.19
2023-04-02T10:10:03.533Z,67.19
2023-04-02T10:11:03.456Z,67.19
2023-04-02T10:12:03.510Z,67.16
2023-04-02T10:13:03.442Z,66.96
2023-04-02T10:14:03.426Z,67.07
2023-04-02T10:15:03.554Z,66.62
2023-04-02T10:16:03.404Z,66.31
2023-04-02T10:17:03.439Z,66.52
2023-04-02T10:18:03.461Z,66.31
2023-04-02T10:19:03.365Z,66.45
2023-04-02T10:20:03.330Z,66.55
2023-04-02T10:21:03.326Z,66.75
2023-04-02T10:22:03.361Z,66.86
2023-04-02T10:23:05.377Z,67.07
2023-04-02T10:24:03.303Z,66.93
2023-04-02T10:25:04.005Z,66.42
2023-04-02T10:26:03.272Z,66.18
2023-04-02T10:27:03.333Z,66.08
2023-04-02T10:28:03.392Z,66.08
2023-04-02T10:29:05.560Z,66.18
2023-04-02T10:30:03.237Z,66.08
2023-04-02T10:31:03.238Z,65.34
2023-04-02T10:32:03.215Z,65.23
2023-04-02T10:33:03.274Z,65.13
2023-04-02T10:34:03.196Z,65.03
2023-04-02T10:35:03.242Z,64.42
2023-04-02T10:36:03.208Z,63.49
2023-04-02T10:37:03.164Z,63.73
2023-04-02T10:38:03.264Z,63.90
2023-04-02T10:39:03.178Z,63.70
2023-04-02T10:40:03.142Z,63.90
2023-04-02T10:41:03.115Z,63.81
2023-04-02T10:42:03.101Z,63.81
2023-04-02T10:43:03.163Z,64.01
2023-04-02T10:44:12.753Z,64.01
2023-04-02T10:45:03.324Z,64.24
2023-04-02T10:46:03.095Z,64.75
2023-04-02T10:47:03.136Z,64.65
2023-04-02T10:48:03.082Z,64.65
2023-04-02T10:49:03.042Z,64.65
2023-04-02T10:50:03.005Z,64.45
2023-04-02T10:51:03.021Z,64.72
2023-04-02T10:52:03.255Z,64.52
2023-04-02T10:53:03.062Z,63.70
2023-04-02T10:54:02.976Z,63.90
2023-04-02T10:55:02.986Z,63.19
2023-04-02T10:56:02.951Z,63.49
2023-04-02T10:57:02.998Z,63.29
2023-04-02T10:58:02.955Z,62.99
2023-04-02T10:59:02.997Z,63.19
2023-04-02T11:00:02.952Z,62.48
2023-04-02T11:01:02.883Z,62.37
2023-04-02T11:02:02.962Z,62.37
2023-04-02T11:03:03.013Z,62.68
2023-04-02T11:04:04.631Z,62.78
2023-04-02T11:05:02.841Z,62.78
2023-04-02T11:06:02.856Z,62.58
2023-04-02T11:07:11.570Z,62.88
2023-04-02T11:08:02.848Z,63.09
2023-04-02T11:09:03.014Z,63.40
2023-04-02T11:10:02.852Z,63.70
2023-04-02T11:11:04.473Z,63.83
2023-04-02T11:12:02.796Z,64.14
2023-04-02T11:13:02.747Z,64.55
2023-04-02T11:14:11.123Z,64.55
2023-04-02T11:15:02.738Z,65.09
2023-04-02T11:16:02.735Z,65.60
2023-04-02T11:17:02.781Z,65.19
2023-04-02T11:18:02.773Z,65.50
2023-04-02T11:19:02.745Z,65.70
2023-04-02T11:20:02.692Z,65.70
2023-04-02T11:21:12.694Z,65.70
2023-04-02T11:22:05.062Z,66.01
2023-04-02T11:23:02.640Z,66.11
2023-04-02T11:24:02.657Z,66.11
2023-04-02T11:25:10.707Z,66.42
2023-04-02T11:26:02.605Z,67.37
2023-04-02T11:27:02.617Z,67.78
2023-04-02T11:28:13.485Z,68.08
2023-04-02T11:29:02.595Z,68.39
2023-04-02T11:30:02.554Z,68.19
2023-04-02T11:31:02.821Z,68.08
2023-04-02T11:32:04.244Z,68.05
2023-04-02T11:33:02.579Z,67.85
2023-04-02T11:34:02.564Z,67.95
2023-04-02T11:35:07.119Z,68.16
2023-04-02T11:36:02.563Z,68.46
2023-04-02T11:37:02.485Z,69.11
2023-04-02T11:38:02.493Z,68.90
2023-04-02T11:39:14.573Z,69.42
2023-04-02T11:40:02.471Z,69.48
2023-04-02T11:41:05.487Z,69.48
2023-04-02T11:42:02.425Z,69.24
2023-04-02T11:43:02.470Z,68.94
2023-04-02T11:44:02.478Z,68.12
2023-04-02T11:45:02.449Z,68.02
2023-04-02T11:46:02.400Z,68.43
2023-04-02T11:47:02.469Z,68.53
2023-04-02T11:48:02.634Z,67.82
2023-04-02T11:49:02.677Z,67.82
2023-04-02T11:50:02.402Z,67.58
2023-04-02T11:51:03.210Z,67.10
2023-04-02T11:52:11.278Z,67.51
2023-04-02T11:53:02.308Z,67.38
2023-04-02T11:54:02.348Z,67.07
2023-04-02T11:55:02.328Z,66.83
2023-04-02T11:56:02.275Z,66.63
2023-04-02T11:57:02.298Z,66.12
2023-04-02T11:58:02.279Z,66.53
2023-04-02T11:59:10.717Z,66.12
2023-04-02T12:00:02.404Z,66.33
2023-04-02T12:01:02.216Z,66.12
2023-04-02T12:02:02.245Z,66.22
2023-04-02T12:03:13.781Z,66.56
2023-04-02T12:04:03.269Z,66.86
2023-04-02T12:05:02.230Z,67.18
2023-04-02T12:06:09.744Z,67.27
2023-04-02T12:07:02.207Z,67.18
2023-04-02T12:08:02.134Z,66.83
2023-04-02T12:10:12.877Z,65.03
2023-04-02T12:11:12.926Z,65.03
2023-04-02T12:12:12.906Z,64.83
2023-04-02T12:13:12.905Z,65.03
2023-04-02T12:14:12.912Z,65.00
2023-04-02T12:15:12.895Z,64.79
2023-04-02T12:16:12.874Z,64.08
2023-04-02T12:17:12.922Z,64.39
2023-04-02T12:18:12.874Z,63.78
2023-04-02T12:19:12.833Z,62.76
2023-04-02T12:20:12.844Z,63.16
2023-04-02T12:21:12.808Z,63.49
2023-04-02T12:22:12.994Z,63.19
2023-04-02T12:23:12.805Z,63.49
2023-04-02T12:24:12.807Z,63.81
2023-04-02T12:25:12.787Z,64.24
2023-04-02T12:26:12.752Z,64.04
2023-04-02T12:27:12.745Z,64.04
2023-04-02T12:28:12.728Z,64.04
2023-04-02T12:29:12.971Z,64.34
2023-04-02T12:30:12.737Z,64.52
2023-04-02T12:31:12.818Z,64.31
2023-04-02T12:32:12.715Z,66.15
2023-04-02T12:33:12.761Z,68.50
2023-04-02T12:34:12.662Z,69.96
2023-04-02T12:35:12.700Z,70.98
2023-04-02T12:36:12.678Z,72.34
2023-04-02T12:37:12.640Z,74.15
2023-04-02T12:38:12.648Z,75.42
2023-04-02T12:39:12.608Z,76.13
2023-04-02T12:40:13.753Z,76.47
2023-04-02T12:41:12.653Z,76.68
2023-04-02T12:42:12.595Z,76.78
2023-04-02T12:43:12.573Z,77.12
2023-04-02T12:44:12.623Z,77.84
2023-04-02T12:45:12.528Z,78.35
2023-04-02T12:46:12.590Z,78.56
2023-04-02T12:47:12.580Z,79.11
2023-04-02T12:48:12.648Z,79.72
2023-04-02T12:49:12.496Z,80.44
2023-04-02T12:50:12.488Z,81.22
2023-04-02T12:51:12.512Z,81.57
2023-04-02T12:52:12.467Z,81.63
2023-04-02T12:53:12.486Z,81.98